»·PEaware :: DAL2752 KLAX-KSFO

DAL2752 :: KLAX-KSFO

FLIGHT INFORMATION

Flight Status: Arrived
Operator:
Delta Air Lines
More flights by this operator :: More flights under this callsign
Pilot: Joshua A. (20601)
Aircraft: BOEING 737-800
(B738)
More flights by this aircraft type
Origin: KLAX Los Angeles Intl
United States
Destination: KSFO San Francisco Intl
United States
More flights between these airports :: More routes between these airports
Route: SUMMR1 STOKD SERFR SERFR3
File this flight plan on PilotEdge
Remarks:
Altitude:
(Current/Filed)
26,000ft
Speed:
(Current/Filed)
450kts
Departed: 03-Oct-18 02:09 PM
Arrived: 03-Oct-18 03:03 PM
Distance/Time
Traveled:
293nm/0:54
Distance/Time
To Go:
Arrived

Flight Plot

Page will automatically refresh every two minutes.

Flight plan parsing failed; only flown route is shown


Map Options




Map Legend


Flown Route
Filed Route
Departure Airport
Arrival Airport
Navaid (VOR, NDB)
Fix

Horizontal Profiles

Position Reports

Time Latitude Longitude Heading Altitude Ground
Speed
03-Oct-18 13:16 33.947020 -118.408274 140 126ft 0kts
03-Oct-18 13:17 33.947020 -118.408274 140 126ft 0kts
03-Oct-18 13:18 33.947020 -118.408274 140 126ft 0kts
03-Oct-18 13:19 33.947020 -118.408274 140 126ft 0kts
03-Oct-18 13:20 33.947020 -118.408274 140 126ft 0kts
03-Oct-18 13:21 33.947020 -118.408274 140 126ft 0kts
03-Oct-18 13:22 33.947020 -118.408274 140 126ft 0kts
03-Oct-18 13:23 33.947020 -118.408274 140 126ft 0kts
03-Oct-18 13:24 33.947020 -118.408274 140 126ft 0kts
03-Oct-18 13:25 33.947020 -118.408274 140 126ft 0kts
03-Oct-18 13:26 33.947020 -118.408274 140 126ft 0kts
03-Oct-18 13:27 33.947020 -118.408274 140 126ft 0kts
03-Oct-18 13:28 33.947020 -118.408274 140 126ft 0kts
03-Oct-18 13:29 33.947020 -118.408274 140 126ft 0kts
03-Oct-18 13:30 33.947020 -118.408274 140 126ft 0kts
03-Oct-18 13:31 33.947020 -118.408274 140 126ft 0kts
03-Oct-18 13:32 33.947020 -118.408274 140 126ft 0kts
03-Oct-18 13:33 33.947020 -118.408274 140 126ft 0kts
03-Oct-18 13:34 33.947020 -118.408274 140 126ft 0kts
03-Oct-18 13:35 33.947020 -118.408274 140 126ft 0kts
03-Oct-18 13:36 33.947020 -118.408274 140 126ft 0kts
03-Oct-18 13:37 33.947020 -118.408274 140 126ft 0kts
03-Oct-18 13:38 33.947020 -118.408274 140 126ft 0kts
03-Oct-18 13:39 33.947020 -118.408274 140 126ft 0kts
03-Oct-18 13:40 33.947020 -118.408274 140 126ft 0kts
03-Oct-18 13:41 33.947020 -118.408274 140 126ft 0kts
03-Oct-18 13:42 33.947020 -118.408274 140 126ft 0kts
03-Oct-18 13:43 33.947020 -118.408274 140 126ft 0kts
03-Oct-18 13:44 33.947020 -118.408274 140 126ft 0kts
03-Oct-18 13:45 33.947020 -118.408274 140 126ft 0kts
03-Oct-18 13:46 33.947020 -118.408274 140 126ft 0kts
03-Oct-18 13:47 33.947020 -118.408274 140 126ft 0kts
03-Oct-18 13:48 33.947020 -118.408274 140 126ft 0kts
03-Oct-18 13:49 33.947020 -118.408274 140 126ft 0kts
03-Oct-18 13:50 33.947020 -118.408274 140 126ft 0kts
03-Oct-18 13:51 33.947020 -118.408274 140 126ft 0kts
03-Oct-18 13:52 33.947020 -118.408274 140 126ft 0kts
03-Oct-18 13:53 33.947020 -118.408274 140 126ft 0kts
03-Oct-18 13:54 33.947020 -118.408274 140 126ft 0kts
03-Oct-18 13:55 33.947020 -118.408274 140 126ft 0kts
03-Oct-18 13:56 33.947020 -118.408274 140 126ft 0kts
03-Oct-18 13:57 33.947020 -118.408274 140 126ft 0kts
03-Oct-18 13:58 33.947020 -118.408274 140 126ft 0kts
03-Oct-18 13:59 33.947020 -118.408274 140 126ft 0kts
03-Oct-18 14:00 33.947020 -118.408274 140 126ft 0kts
03-Oct-18 14:01 33.947365 -118.408639 125 126ft 2kts
03-Oct-18 14:02 33.947492 -118.409203 82 127ft 1kts
03-Oct-18 14:03 33.947487 -118.409246 82 127ft 0kts
03-Oct-18 14:04 33.947487 -118.409246 82 127ft 0kts
03-Oct-18 14:05 33.947487 -118.409246 82 127ft 0kts
03-Oct-18 14:06 33.948548 -118.407152 82 126ft 16kts
03-Oct-18 14:07 33.949020 -118.402550 82 122ft 14kts
03-Oct-18 14:08 33.949463 -118.399374 53 118ft 0kts
03-Oct-18 14:09 33.949463 -118.399374 53 118ft 0kts
03-Oct-18 14:10 33.949744 -118.399149 18 117ft 7kts
03-Oct-18 14:11 33.949289 -118.410597 263 128ft 148kts
03-Oct-18 14:12 33.943531 -118.469847 266 2161ft 217kts
03-Oct-18 14:13 33.938946 -118.552182 265 5721ft 263kts
03-Oct-18 14:14 33.931825 -118.642160 265 9613ft 282kts
03-Oct-18 14:15 33.924355 -118.738029 265 12036ft 311kts
03-Oct-18 14:16 33.916869 -118.842604 273 12066ft 322kts
03-Oct-18 14:17 33.920358 -118.949616 273 15849ft 329kts
03-Oct-18 14:18 33.942115 -119.055321 301 19040ft 341kts
03-Oct-18 14:19 33.993213 -119.153902 301 22012ft 355kts
03-Oct-18 14:20 34.065333 -119.234381 323 24596ft 372kts
03-Oct-18 14:21 34.151944 -119.308479 323 25973ft 399kts
03-Oct-18 14:22 34.246385 -119.389887 323 25964ft 426kts
03-Oct-18 14:23 34.342058 -119.472627 323 25966ft 425kts
03-Oct-18 14:24 34.434615 -119.560277 313 25977ft 423kts
03-Oct-18 14:25 34.515925 -119.661173 313 25967ft 424kts
03-Oct-18 14:26 34.598253 -119.762845 313 25966ft 424kts
03-Oct-18 14:27 34.680876 -119.865060 313 25967ft 424kts
03-Oct-18 14:28 34.763409 -119.967464 313 25967ft 425kts
03-Oct-18 14:29 34.845771 -120.069968 313 25941ft 426kts
03-Oct-18 14:30 34.928421 -120.173148 313 25939ft 428kts
03-Oct-18 14:31 35.011088 -120.276666 312 25939ft 428kts
03-Oct-18 14:32 35.093737 -120.380161 315 25935ft 429kts
03-Oct-18 14:33 35.178198 -120.474278 316 25938ft 430kts
03-Oct-18 14:34 35.267099 -120.573981 315 25938ft 441kts
03-Oct-18 14:35 35.356186 -120.674314 315 25941ft 440kts
03-Oct-18 14:36 35.445759 -120.775519 315 25940ft 441kts
03-Oct-18 14:37 35.540318 -120.871348 321 25940ft 442kts
03-Oct-18 14:38 35.638174 -120.961899 321 25940ft 442kts
03-Oct-18 14:39 35.735973 -121.052993 321 25940ft 442kts
03-Oct-18 14:40 35.833344 -121.143962 321 25941ft 442kts
03-Oct-18 14:41 35.931163 -121.235645 321 25941ft 442kts
03-Oct-18 14:42 36.028579 -121.327236 321 25941ft 442kts
03-Oct-18 14:43 36.124745 -121.409094 326 25938ft 443kts
03-Oct-18 14:44 36.225593 -121.487428 326 25938ft 443kts
03-Oct-18 14:45 36.328605 -121.568045 326 25910ft 418kts
03-Oct-18 14:46 36.422269 -121.641626 325 24589ft 396kts
03-Oct-18 14:47 36.513244 -121.713313 325 22656ft 385kts
03-Oct-18 14:48 36.601976 -121.783485 325 20779ft 376kts
03-Oct-18 14:49 36.688960 -121.852458 325 18938ft 367kts
03-Oct-18 14:50 36.778871 -121.905346 347 17224ft 361kts
03-Oct-18 14:51 36.875022 -121.931564 346 15447ft 349kts
03-Oct-18 14:52 36.967417 -121.958537 341 13774ft 338kts
03-Oct-18 14:53 37.056058 -121.993587 341 12039ft 330kts
03-Oct-18 14:54 37.138748 -122.025915 342 10479ft 308kts
03-Oct-18 14:55 37.217880 -122.056913 341 9176ft 285kts
03-Oct-18 14:56 37.291550 -122.085888 341 7690ft 276kts
03-Oct-18 14:57 37.362032 -122.113654 341 6219ft 254kts
03-Oct-18 14:58 37.426999 -122.136650 342 4676ft 219kts
03-Oct-18 14:59 37.483350 -122.155954 342 3189ft 208kts
03-Oct-18 15:00 37.534551 -122.177905 304 2444ft 173kts
03-Oct-18 15:01 37.559163 -122.233660 298 2219ft 191kts
03-Oct-18 15:02 37.581270 -122.286859 297 1302ft 162kts
03-Oct-18 15:03 37.601793 -122.335021 299 487ft 150kts
03-Oct-18 15:04 37.617893 -122.373253 297 14ft 55kts
03-Oct-18 15:05 37.618674 -122.379126 241 29ft 16kts
03-Oct-18 15:06 37.615830 -122.380165 207 30ft 11kts
03-Oct-18 15:07 37.613684 -122.382800 298 31ft 10kts
03-Oct-18 15:08 37.614436 -122.383273 30 30ft 0kts
03-Oct-18 15:09 37.614592 -122.383160 29 31ft 0kts
03-Oct-18 15:10 37.614591 -122.383160 29 31ft 0kts
03-Oct-18 15:11 37.614591 -122.383160 29 31ft 0kts
03-Oct-18 15:12 37.614591 -122.383160 29 31ft 0kts

Navigation Log

Ident Type
Flight plan parsing failed, navigation log unavailable